Time;durP1;ratioP1;P1;durP2;ratioP2;P2;SDS_P1;SDS_P2;PMS_P1;PMS_P2;Temp;Humidity;BMP_temperature;BMP_pressure;BME280_temperature;BME280_humidity;BME280_pressure;Samples;Min_cycle;Max_cycle;Signal;HPM_P1;HPM_P2
2023/12/22 00:01:15;;;;;;;;;;;6.00;97.00;;;;;;6245928;23;19978;-80
2023/12/22 00:03:41;;;;;;;;;;;6.00;96.80;;;;;;6247494;23;19907;-80
2023/12/22 00:06:07;;;;;;;;;;;5.90;96.90;;;;;;6247062;23;19906;-80
2023/12/22 00:08:32;;;;;;;;;;;5.90;96.70;;;;;;6247462;23;19900;-80
2023/12/22 00:10:58;;;;;;;;;;;5.90;96.80;;;;;;6246991;23;19982;-80
2023/12/22 00:13:24;;;;;;;;;;;5.90;97.00;;;;;;6246195;23;19987;-80
2023/12/22 00:15:50;;;;;;;;;;;5.90;96.80;;;;;;6245976;23;19904;-81
2023/12/22 00:18:15;;;;;;;;;;;5.90;96.90;;;;;;6246459;23;19900;-81
2023/12/22 00:20:41;;;;;;;;;;;5.90;96.80;;;;;;6246545;23;19908;-81
2023/12/22 00:23:06;;;;;;;;;;;5.90;96.70;;;;;;6246980;23;20378;-81
2023/12/22 00:25:32;;;;;;;;;;;5.90;96.70;;;;;;6246927;23;19954;-80
2023/12/22 00:27:57;;;;;;;;;;;5.90;96.60;;;;;;6246326;23;19978;-80
2023/12/22 00:30:24;;;;;;;;;;;5.90;96.70;;;;;;6245704;23;19899;-80
2023/12/22 00:32:49;;;;;;;;;;;5.90;96.80;;;;;;6247015;23;19906;-81
2023/12/22 00:35:15;;;;;;;;;;;5.90;96.80;;;;;;6246924;23;19904;-80
2023/12/22 00:37:41;;;;;;;;;;;6.00;96.60;;;;;;6246446;23;19919;-80
2023/12/22 00:40:08;;;;;;;;;;;5.90;96.60;;;;;;6246761;23;19904;-80
2023/12/22 00:42:33;;;;;;;;;;;5.90;96.50;;;;;;6245139;23;19986;-81
2023/12/22 00:44:59;;;;;;;;;;;5.90;96.60;;;;;;6246434;23;19923;-79
2023/12/22 00:47:24;;;;;;;;;;;6.00;96.80;;;;;;6246599;23;19899;-79
2023/12/22 00:49:50;;;;;;;;;;;5.90;96.40;;;;;;6247794;23;20474;-80
2023/12/22 00:52:15;;;;;;;;;;;5.90;96.40;;;;;;6219602;23;19907;-79
2023/12/22 00:54:41;;;;;;;;;;;5.90;96.50;;;;;;6246966;23;19903;-80
2023/12/22 00:57:06;;;;;;;;;;;5.90;96.50;;;;;;6245842;23;19907;-80
2023/12/22 00:59:32;;;;;;;;;;;5.90;96.60;;;;;;6246667;23;19979;-82
2023/12/22 01:01:59;;;;;;;;;;;5.90;96.60;;;;;;6246782;23;19953;-81
2023/12/22 01:04:25;;;;;;;;;;;5.90;96.70;;;;;;6246127;23;19989;-81
2023/12/22 01:06:50;;;;;;;;;;;6.00;96.70;;;;;;6246453;23;19942;-81
2023/12/22 01:09:16;;;;;;;;;;;6.00;96.50;;;;;;6244958;23;19900;-81
2023/12/22 01:11:41;;;;;;;;;;;6.00;96.60;;;;;;6246408;23;19900;-81
2023/12/22 01:14:07;;;;;;;;;;;6.10;96.60;;;;;;6246219;23;19922;-82
2023/12/22 01:16:33;;;;;;;;;;;6.10;96.30;;;;;;6246323;23;20356;-81
2023/12/22 01:18:58;;;;;;;;;;;6.00;96.30;;;;;;6246354;23;19945;-81
2023/12/22 01:21:24;;;;;;;;;;;6.00;96.40;;;;;;6219463;23;19954;-81
2023/12/22 01:23:50;;;;;;;;;;;6.00;96.20;;;;;;6219507;23;19900;-81
2023/12/22 01:26:15;;;;;;;;;;;6.00;96.30;;;;;;6244785;23;19910;-82
2023/12/22 01:28:41;;;;;;;;;;;6.00;96.20;;;;;;6219620;23;19899;-81
2023/12/22 01:31:06;;;;;;;;;;;6.00;96.30;;;;;;6244694;23;19969;-81
2023/12/22 01:33:32;;;;;;;;;;;6.10;96.30;;;;;;6246457;23;19900;-81
2023/12/22 01:35:57;;;;;;;;;;;6.10;96.30;;;;;;6245695;23;20536;-81
2023/12/22 01:38:23;;;;;;;;;;;6.10;96.00;;;;;;6246152;23;20377;-81
2023/12/22 01:40:48;;;;;;;;;;;6.10;96.20;;;;;;6246004;23;19907;-81
2023/12/22 01:43:15;;;;;;;;;;;6.10;96.00;;;;;;6246130;23;19910;-81
2023/12/22 01:45:43;;;;;;;;;;;6.00;96.00;;;;;;6219276;23;19994;-81
2023/12/22 01:48:09;;;;;;;;;;;6.00;95.90;;;;;;6245961;23;19927;-81
2023/12/22 01:50:36;;;;;;;;;;;6.00;96.00;;;;;;6220022;23;20218;-81
2023/12/22 01:53:02;;;;;;;;;;;6.10;96.00;;;;;;6246197;23;20014;-81
2023/12/22 01:55:28;;;;;;;;;;;6.10;96.00;;;;;;6246361;23;19931;-81
2023/12/22 01:57:53;;;;;;;;;;;6.10;95.90;;;;;;6245381;23;19900;-81
2023/12/22 02:00:19;;;;;;;;;;;6.10;95.90;;;;;;6245966;23;19911;-80
2023/12/22 02:02:45;;;;;;;;;;;6.10;95.50;;;;;;6219322;23;20364;-80
2023/12/22 02:05:11;;;;;;;;;;;6.10;95.70;;;;;;6245960;23;20353;-80
2023/12/22 02:07:39;;;;;;;;;;;6.20;95.70;;;;;;6245780;23;19922;-80
2023/12/22 02:10:06;;;;;;;;;;;6.10;95.70;;;;;;6245693;23;19914;-80
2023/12/22 02:12:32;;;;;;;;;;;6.20;95.60;;;;;;6245300;23;19899;-80
2023/12/22 02:14:57;;;;;;;;;;;6.10;95.70;;;;;;6246317;23;19899;-81
2023/12/22 02:17:25;;;;;;;;;;;6.10;95.80;;;;;;6248230;23;19903;-80
2023/12/22 02:19:51;;;;;;;;;;;6.20;95.70;;;;;;6247818;23;19900;-81
2023/12/22 02:22:16;;;;;;;;;;;6.20;95.70;;;;;;6247650;23;20033;-81
2023/12/22 02:24:42;;;;;;;;;;;6.20;95.70;;;;;;6247725;23;19899;-81
2023/12/22 02:27:26;;;;;;;;;;;6.30;95.70;;;;;;6247812;23;19949;-80
2023/12/22 02:29:54;;;;;;;;;;;6.30;95.60;;;;;;6247779;23;19930;-80
2023/12/22 02:32:24;;;;;;;;;;;6.30;95.50;;;;;;6247965;23;19902;-80
2023/12/22 02:34:54;;;;;;;;;;;6.30;95.70;;;;;;6247639;23;19927;-80
2023/12/22 02:37:21;;;;;;;;;;;6.30;95.60;;;;;;6247970;23;19899;-80
2023/12/22 02:39:47;;;;;;;;;;;6.30;95.60;;;;;;6248317;23;19952;-80
2023/12/22 02:42:13;;;;;;;;;;;6.30;95.70;;;;;;6247939;23;19930;-80
2023/12/22 02:44:39;;;;;;;;;;;6.30;95.50;;;;;;6248076;23;19954;-81
2023/12/22 02:47:04;;;;;;;;;;;6.30;95.40;;;;;;6247950;23;19899;-81
2023/12/22 02:49:30;;;;;;;;;;;6.30;95.50;;;;;;6247778;23;19911;-80
2023/12/22 02:51:55;;;;;;;;;;;6.30;95.60;;;;;;6247820;23;19899;-80
2023/12/22 02:54:21;;;;;;;;;;;6.40;95.50;;;;;;6220749;23;19904;-81
2023/12/22 02:56:47;;;;;;;;;;;6.40;95.60;;;;;;6247938;23;19900;-81
2023/12/22 02:59:12;;;;;;;;;;;6.40;95.60;;;;;;6245922;23;19950;-81
2023/12/22 03:01:38;;;;;;;;;;;6.50;95.70;;;;;;6247874;23;20294;-81
2023/12/22 03:04:03;;;;;;;;;;;6.50;95.60;;;;;;6246084;23;19942;-81
2023/12/22 03:06:29;;;;;;;;;;;6.50;95.70;;;;;;6220288;23;19900;-81
2023/12/22 03:08:58;;;;;;;;;;;6.50;95.50;;;;;;6247116;23;19906;-81
2023/12/22 03:11:23;;;;;;;;;;;6.50;95.60;;;;;;6247912;23;19953;-81
2023/12/22 03:13:49;;;;;;;;;;;6.50;95.70;;;;;;6247747;23;20213;-81
2023/12/22 03:16:14;;;;;;;;;;;6.50;95.60;;;;;;6247282;23;19899;-81
2023/12/22 03:18:40;;;;;;;;;;;6.50;95.60;;;;;;6245553;23;19934;-81
2023/12/22 03:21:06;;;;;;;;;;;6.50;95.70;;;;;;6220671;23;19904;-81
2023/12/22 03:23:31;;;;;;;;;;;6.50;95.60;;;;;;6247802;23;19957;-81
2023/12/22 03:25:57;;;;;;;;;;;6.60;95.50;;;;;;6247697;23;19916;-81
2023/12/22 03:28:22;;;;;;;;;;;6.60;95.50;;;;;;6247451;23;19979;-81
2023/12/22 03:30:48;;;;;;;;;;;6.60;95.40;;;;;;6247196;23;19899;-81
2023/12/22 03:33:13;;;;;;;;;;;6.60;95.50;;;;;;6220917;23;19906;-81
2023/12/22 03:35:39;;;;;;;;;;;6.60;95.50;;;;;;6220322;23;20273;-82
2023/12/22 03:38:04;;;;;;;;;;;6.60;95.50;;;;;;6247676;23;19907;-82
2023/12/22 03:40:30;;;;;;;;;;;6.60;95.40;;;;;;6245776;23;19912;-82
2023/12/22 03:42:56;;;;;;;;;;;6.60;95.40;;;;;;6220664;23;19907;-81
2023/12/22 03:45:21;;;;;;;;;;;6.60;95.40;;;;;;6220410;23;20187;-80
2023/12/22 03:47:47;;;;;;;;;;;6.60;95.30;;;;;;6220762;23;19900;-81
2023/12/22 03:50:12;;;;;;;;;;;6.60;95.20;;;;;;6247155;23;19962;-81
2023/12/22 03:52:38;;;;;;;;;;;6.60;95.30;;;;;;6247271;23;19899;-81
2023/12/22 03:55:04;;;;;;;;;;;6.60;95.30;;;;;;6246647;23;19906;-81
2023/12/22 03:57:29;;;;;;;;;;;6.60;95.30;;;;;;6245610;23;19907;-81
2023/12/22 03:59:55;;;;;;;;;;;6.60;95.40;;;;;;6245732;22;19903;-81
2023/12/22 04:02:20;;;;;;;;;;;6.60;95.20;;;;;;6220256;23;19915;-81
2023/12/22 04:04:46;;;;;;;;;;;6.60;95.30;;;;;;6245640;23;20520;-82
2023/12/22 04:07:12;;;;;;;;;;;6.60;95.30;;;;;;6246766;23;19899;-80
2023/12/22 04:09:38;;;;;;;;;;;6.60;95.20;;;;;;6247374;23;19953;-80
2023/12/22 04:12:04;;;;;;;;;;;6.60;95.10;;;;;;6246588;23;19975;-80
2023/12/22 04:14:30;;;;;;;;;;;6.60;95.20;;;;;;6247035;23;19923;-80
2023/12/22 04:16:56;;;;;;;;;;;6.60;95.20;;;;;;6246720;23;19902;-81
2023/12/22 04:19:21;;;;;;;;;;;6.50;95.10;;;;;;6245605;23;20183;-81
2023/12/22 04:21:47;;;;;;;;;;;6.50;95.20;;;;;;6246607;23;19922;-80
2023/12/22 04:24:13;;;;;;;;;;;6.50;95.10;;;;;;6247048;23;19903;-81
2023/12/22 04:26:38;;;;;;;;;;;6.50;94.90;;;;;;6245135;23;19986;-81
2023/12/22 04:29:04;;;;;;;;;;;6.50;95.10;;;;;;6246629;23;19899;-81
2023/12/22 04:31:29;;;;;;;;;;;6.50;95.10;;;;;;6245296;23;20350;-81
2023/12/22 04:33:55;;;;;;;;;;;6.50;95.00;;;;;;6247133;23;19906;-80
2023/12/22 04:36:21;;;;;;;;;;;6.50;95.00;;;;;;6246726;23;19903;-80
2023/12/22 04:38:46;;;;;;;;;;;6.50;94.90;;;;;;6246581;23;20521;-80
2023/12/22 04:41:12;;;;;;;;;;;6.50;94.80;;;;;;6247037;23;19908;-80
2023/12/22 04:43:37;;;;;;;;;;;6.40;94.60;;;;;;6246803;23;19931;-80
2023/12/22 04:46:03;;;;;;;;;;;6.40;94.70;;;;;;6246002;23;19927;-81
2023/12/22 04:48:29;;;;;;;;;;;6.40;94.70;;;;;;6219329;23;19908;-80
2023/12/22 04:50:54;;;;;;;;;;;6.30;94.70;;;;;;6246485;23;19900;-80
2023/12/22 04:53:20;;;;;;;;;;;6.40;94.80;;;;;;6246645;23;19970;-80
2023/12/22 04:55:46;;;;;;;;;;;6.40;94.70;;;;;;6246569;23;19907;-81
2023/12/22 04:58:11;;;;;;;;;;;6.40;94.70;;;;;;6246853;23;19900;-81
2023/12/22 05:00:37;;;;;;;;;;;6.40;94.70;;;;;;6219716;23;19903;-81
2023/12/22 05:03:03;;;;;;;;;;;6.40;94.60;;;;;;6246667;23;19978;-81
2023/12/22 05:05:29;;;;;;;;;;;6.40;94.50;;;;;;6219604;23;19914;-80
2023/12/22 05:07:54;;;;;;;;;;;6.40;94.30;;;;;;6246123;23;19903;-81
2023/12/22 05:10:20;;;;;;;;;;;6.40;94.30;;;;;;6246199;23;19974;-81
2023/12/22 05:12:45;;;;;;;;;;;6.40;94.40;;;;;;6246638;23;19930;-81
2023/12/22 05:15:11;;;;;;;;;;;6.40;94.40;;;;;;6246317;23;19904;-80
2023/12/22 05:17:37;;;;;;;;;;;6.40;94.40;;;;;;6246519;23;19974;-80
2023/12/22 05:20:02;;;;;;;;;;;6.40;94.50;;;;;;6246616;23;19906;-80
2023/12/22 05:22:30;;;;;;;;;;;6.50;94.50;;;;;;6244332;22;19907;-80
2023/12/22 05:24:57;;;;;;;;;;;6.50;94.50;;;;;;6246036;23;19978;-80
2023/12/22 05:27:22;;;;;;;;;;;6.50;94.50;;;;;;6246393;23;19906;-80
2023/12/22 05:29:48;;;;;;;;;;;6.50;94.40;;;;;;6246555;23;19899;-80
2023/12/22 05:32:13;;;;;;;;;;;6.50;94.10;;;;;;6245941;23;19978;-80
2023/12/22 05:34:39;;;;;;;;;;;6.50;94.30;;;;;;6218747;23;19935;-80
2023/12/22 05:37:04;;;;;;;;;;;6.50;94.40;;;;;;6245523;23;19900;-80
2023/12/22 05:39:30;;;;;;;;;;;6.50;94.40;;;;;;6245102;23;19974;-80
2023/12/22 05:41:55;;;;;;;;;;;6.50;94.50;;;;;;6219016;23;20219;-80
2023/12/22 05:44:23;;;;;;;;;;;6.40;94.40;;;;;;6245731;23;19935;-80
2023/12/22 05:46:49;;;;;;;;;;;6.40;94.40;;;;;;6244054;23;19900;-80
2023/12/22 05:49:14;;;;;;;;;;;6.40;94.40;;;;;;6225015;23;20319;-81
2023/12/22 05:51:40;;;;;;;;;;;6.40;94.40;;;;;;6213406;23;20156;-80
2023/12/22 05:54:10;;;;;;;;;;;6.40;94.30;;;;;;6187355;23;19975;-80
2023/12/22 05:56:35;;;;;;;;;;;6.40;94.40;;;;;;6214120;23;19899;-82
2023/12/22 05:59:01;;;;;;;;;;;6.40;94.40;;;;;;6215483;23;19994;-81
2023/12/22 06:01:26;;;;;;;;;;;6.40;94.40;;;;;;6215268;23;19903;-81
2023/12/22 06:03:53;;;;;;;;;;;6.30;94.40;;;;;;6215148;23;19904;-81
2023/12/22 06:06:19;;;;;;;;;;;6.30;94.40;;;;;;6214767;23;19938;-80
2023/12/22 06:08:44;;;;;;;;;;;6.30;94.20;;;;;;6213849;23;19900;-80
2023/12/22 06:11:10;;;;;;;;;;;6.30;94.30;;;;;;6188839;23;19991;-81
2023/12/22 06:13:35;;;;;;;;;;;6.30;94.30;;;;;;6188659;23;19900;-80
2023/12/22 06:16:01;;;;;;;;;;;6.30;94.30;;;;;;6215599;23;19908;-81
2023/12/22 06:18:27;;;;;;;;;;;6.30;94.20;;;;;;6215503;23;20380;-80
2023/12/22 06:20:52;;;;;;;;;;;6.20;94.20;;;;;;6213655;23;19987;-80
2023/12/22 06:23:18;;;;;;;;;;;6.10;94.30;;;;;;6215415;23;20207;-80
2023/12/22 06:25:46;;;;;;;;;;;6.10;94.40;;;;;;6215700;23;20234;-80
2023/12/22 06:28:12;;;;;;;;;;;6.10;94.40;;;;;;6213502;23;19908;-80
2023/12/22 06:30:42;;;;;;;;;;;6.00;94.40;;;;;;6214051;23;20394;-81
2023/12/22 06:33:08;;;;;;;;;;;6.00;94.50;;;;;;6214618;23;19899;-81
2023/12/22 06:35:33;;;;;;;;;;;6.00;94.50;;;;;;6214192;23;20328;-86
2023/12/22 06:38:03;;;;;;;;;;;5.90;94.60;;;;;;6215777;23;19950;-86
2023/12/22 06:40:29;;;;;;;;;;;5.90;94.70;;;;;;6215782;23;20386;-86
2023/12/22 06:42:54;;;;;;;;;;;5.80;94.70;;;;;;6214082;23;19927;-87
2023/12/22 06:45:20;;;;;;;;;;;5.80;94.80;;;;;;6213986;23;20207;-87
2023/12/22 06:47:46;;;;;;;;;;;5.80;94.90;;;;;;6215625;23;19939;-87
2023/12/22 06:50:11;;;;;;;;;;;5.70;94.90;;;;;;6238894;22;19919;-87
2023/12/22 06:52:37;;;;;;;;;;;5.70;95.00;;;;;;6215287;23;19943;-87
2023/12/22 06:55:02;;;;;;;;;;;5.70;95.10;;;;;;6215493;23;19900;-87
2023/12/22 06:57:28;;;;;;;;;;;5.70;95.10;;;;;;6215843;23;19900;-87
2023/12/22 06:59:53;;;;;;;;;;;5.70;95.10;;;;;;6215511;23;19966;-88
2023/12/22 07:02:19;;;;;;;;;;;5.70;95.20;;;;;;6241964;23;20338;-85
2023/12/22 07:05:07;;;;;;;;;;;5.70;95.20;;;;;;6217086;23;19900;-85
2023/12/22 07:07:32;;;;;;;;;;;5.60;95.20;;;;;;6217737;23;19930;-83
2023/12/22 07:09:58;;;;;;;;;;;5.70;95.20;;;;;;6215640;23;19899;-84
2023/12/22 07:12:23;;;;;;;;;;;5.70;95.60;;;;;;6216664;23;20321;-79
2023/12/22 07:14:49;;;;;;;;;;;5.70;95.50;;;;;;6216685;23;20349;-80
2023/12/22 07:17:15;;;;;;;;;;;5.80;95.60;;;;;;6216003;23;19906;-81
2023/12/22 07:19:41;;;;;;;;;;;5.80;95.50;;;;;;6216301;23;20310;-81
2023/12/22 07:22:06;;;;;;;;;;;5.80;95.40;;;;;;6217021;23;19927;-80
2023/12/22 07:24:32;;;;;;;;;;;5.90;95.20;;;;;;6240695;23;19907;-81
2023/12/22 07:26:57;;;;;;;;;;;5.90;95.20;;;;;;6217192;23;19938;-81
2023/12/22 07:29:23;;;;;;;;;;;5.90;95.10;;;;;;6216790;23;19899;-82
2023/12/22 07:31:49;;;;;;;;;;;5.90;95.30;;;;;;6217139;23;19950;-81
2023/12/22 07:34:15;;;;;;;;;;;5.90;95.40;;;;;;6215909;23;19906;-82
2023/12/22 07:36:40;;;;;;;;;;;6.00;95.20;;;;;;6215585;23;19900;-81
2023/12/22 07:39:06;;;;;;;;;;;6.00;95.20;;;;;;6216906;23;19899;-82
2023/12/22 07:41:32;;;;;;;;;;;6.00;95.20;;;;;;6215278;23;19904;-82
2023/12/22 07:43:58;;;;;;;;;;;6.00;95.30;;;;;;6217780;23;20392;-81
2023/12/22 07:46:23;;;;;;;;;;;6.00;95.20;;;;;;6217299;23;19899;-80
2023/12/22 07:48:50;;;;;;;;;;;6.00;95.30;;;;;;6229656;23;19916;-80
2023/12/22 07:51:16;;;;;;;;;;;6.00;95.30;;;;;;6247614;23;20269;-80
2023/12/22 07:53:41;;;;;;;;;;;6.00;95.40;;;;;;6247812;23;19903;-81
2023/12/22 07:56:08;;;;;;;;;;;6.10;95.40;;;;;;6245974;23;20246;-81
2023/12/22 07:58:33;;;;;;;;;;;6.10;95.50;;;;;;6245856;23;19978;-81
2023/12/22 08:00:59;;;;;;;;;;;6.10;95.40;;;;;;6246807;23;19988;-81
2023/12/22 08:03:24;;;;;;;;;;;6.10;95.50;;;;;;6247517;23;19899;-79
2023/12/22 08:05:50;;;;;;;;;;;6.20;95.70;;;;;;6246977;23;19899;-79
2023/12/22 08:08:15;;;;;;;;;;;6.20;95.40;;;;;;6247400;23;19899;-79
2023/12/22 08:10:41;;;;;;;;;;;6.30;95.50;;;;;;6247309;23;19903;-80
2023/12/22 08:13:06;;;;;;;;;;;6.30;95.50;;;;;;6246748;23;19907;-79
2023/12/22 08:15:32;;;;;;;;;;;6.40;95.50;;;;;;6247133;23;19923;-79
2023/12/22 08:17:57;;;;;;;;;;;6.40;95.50;;;;;;6219782;23;20504;-79
2023/12/22 08:20:23;;;;;;;;;;;6.50;95.50;;;;;;6246913;23;19899;-81
2023/12/22 08:22:50;;;;;;;;;;;6.50;95.40;;;;;;6247458;23;19982;-81
2023/12/22 08:25:18;;;;;;;;;;;6.60;95.50;;;;;;6245923;23;19900;-81
2023/12/22 08:27:45;;;;;;;;;;;6.60;95.40;;;;;;6247149;23;19899;-80
2023/12/22 08:30:10;;;;;;;;;;;6.60;95.40;;;;;;6246951;23;20320;-81
2023/12/22 08:32:36;;;;;;;;;;;6.70;95.40;;;;;;6247045;23;20310;-81
2023/12/22 08:35:03;;;;;;;;;;;6.80;95.40;;;;;;6247057;23;19910;-80
2023/12/22 08:37:28;;;;;;;;;;;6.80;95.20;;;;;;6247220;23;19899;-81
2023/12/22 08:39:54;;;;;;;;;;;6.90;95.30;;;;;;6246219;23;20210;-81
2023/12/22 08:42:19;;;;;;;;;;;6.90;95.20;;;;;;6246638;23;19995;-79
2023/12/22 08:44:45;;;;;;;;;;;7.00;95.20;;;;;;6220261;23;19931;-79
2023/12/22 08:47:10;;;;;;;;;;;7.10;95.20;;;;;;6246234;23;19900;-79
2023/12/22 08:49:36;;;;;;;;;;;7.20;95.10;;;;;;6246851;23;19965;-80
2023/12/22 08:52:03;;;;;;;;;;;7.30;94.90;;;;;;6245775;23;19948;-79
2023/12/22 08:54:29;;;;;;;;;;;7.40;94.90;;;;;;6246503;23;19900;-79
2023/12/22 08:56:55;;;;;;;;;;;7.50;94.70;;;;;;6247010;23;19906;-79
2023/12/22 08:59:20;;;;;;;;;;;7.60;94.70;;;;;;6246958;23;19904;-78
2023/12/22 09:01:46;;;;;;;;;;;7.60;94.70;;;;;;6245401;23;20295;-79
2023/12/22 09:04:11;;;;;;;;;;;7.70;94.60;;;;;;6220321;23;19925;-79
2023/12/22 09:06:37;;;;;;;;;;;7.80;94.60;;;;;;6247137;23;19899;-79
2023/12/22 09:09:03;;;;;;;;;;;7.80;94.50;;;;;;6247217;23;20022;-79
2023/12/22 09:11:29;;;;;;;;;;;7.90;94.40;;;;;;6246740;23;19922;-79
2023/12/22 09:13:55;;;;;;;;;;;8.00;94.40;;;;;;6247119;23;20298;-79
2023/12/22 09:16:24;;;;;;;;;;;8.10;94.40;;;;;;6247198;23;19900;-79
2023/12/22 09:18:51;;;;;;;;;;;8.20;94.30;;;;;;6246934;23;19900;-79
2023/12/22 09:21:17;;;;;;;;;;;8.30;94.30;;;;;;6220000;23;19956;-79
2023/12/22 09:23:45;;;;;;;;;;;8.40;94.30;;;;;;6246777;23;19899;-79
2023/12/22 09:26:11;;;;;;;;;;;8.50;94.20;;;;;;6245272;23;20037;-79
2023/12/22 09:28:36;;;;;;;;;;;8.60;94.20;;;;;;6245295;23;20325;-79
2023/12/22 09:31:05;;;;;;;;;;;8.60;94.10;;;;;;6246763;23;19899;-81
2023/12/22 09:33:31;;;;;;;;;;;8.70;94.20;;;;;;6245135;23;19906;-81
2023/12/22 09:35:56;;;;;;;;;;;8.80;94.10;;;;;;6246571;23;19935;-81
2023/12/22 09:38:23;;;;;;;;;;;8.90;93.90;;;;;;6246391;23;19923;-81
2023/12/22 09:40:49;;;;;;;;;;;9.00;93.70;;;;;;6219352;23;19906;-81
2023/12/22 09:43:15;;;;;;;;;;;9.00;93.60;;;;;;6246876;23;20025;-81
2023/12/22 09:45:41;;;;;;;;;;;9.10;93.50;;;;;;6246728;23;20273;-81
2023/12/22 09:48:07;;;;;;;;;;;9.20;93.20;;;;;;6245992;23;19899;-81
2023/12/22 09:50:34;;;;;;;;;;;9.30;93.30;;;;;;6244663;23;19899;-81
2023/12/22 09:53:00;;;;;;;;;;;9.40;93.20;;;;;;6246319;23;20325;-81
2023/12/22 09:55:26;;;;;;;;;;;9.60;92.90;;;;;;6246691;23;19900;-81
2023/12/22 09:57:52;;;;;;;;;;;9.70;92.80;;;;;;6246852;23;19905;-81
2023/12/22 10:00:18;;;;;;;;;;;9.80;92.50;;;;;;6246780;23;19935;-81
2023/12/22 10:02:45;;;;;;;;;;;9.80;92.50;;;;;;6246667;23;19935;-81
2023/12/22 10:05:12;;;;;;;;;;;9.90;92.50;;;;;;6245606;23;19907;-81
2023/12/22 10:07:38;;;;;;;;;;;9.90;92.30;;;;;;6219192;23;20250;-81
2023/12/22 10:10:05;;;;;;;;;;;9.90;92.50;;;;;;6246017;23;19899;-79
2023/12/22 10:12:33;;;;;;;;;;;10.00;92.30;;;;;;6244154;23;19906;-79
2023/12/22 10:15:00;;;;;;;;;;;10.10;92.30;;;;;;6245885;23;19899;-79
2023/12/22 10:17:25;;;;;;;;;;;10.10;92.40;;;;;;6246146;23;19900;-80
2023/12/22 10:19:51;;;;;;;;;;;10.20;92.40;;;;;;6246604;23;20333;-80
2023/12/22 10:22:17;;;;;;;;;;;10.30;92.40;;;;;;6246457;23;20232;-79
2023/12/22 10:24:44;;;;;;;;;;;10.50;92.50;;;;;;6246533;23;19974;-79
2023/12/22 10:27:10;;;;;;;;;;;10.60;92.20;;;;;;6244975;23;19903;-79
2023/12/22 10:29:36;;;;;;;;;;;10.80;91.90;;;;;;6242180;23;19900;-79
2023/12/22 10:32:02;;;;;;;;;;;10.90;91.90;;;;;;6243776;23;19907;-80
2023/12/22 10:34:28;;;;;;;;;;;11.10;92.10;;;;;;6246113;23;19906;-80
2023/12/22 10:36:54;;;;;;;;;;;11.30;92.10;;;;;;6245793;23;19900;-80
2023/12/22 10:39:21;;;;;;;;;;;11.60;91.80;;;;;;6245934;23;20229;-80
2023/12/22 10:41:46;;;;;;;;;;;11.80;91.40;;;;;;6247316;23;19957;-80
2023/12/22 10:44:12;;;;;;;;;;;12.00;91.40;;;;;;6247898;23;19903;-79
2023/12/22 10:46:37;;;;;;;;;;;12.20;91.20;;;;;;6247944;23;19919;-80
2023/12/22 10:49:06;;;;;;;;;;;12.40;90.70;;;;;;6247679;23;19911;-80
2023/12/22 10:51:32;;;;;;;;;;;12.50;90.00;;;;;;6248241;23;19904;-80
2023/12/22 10:53:58;;;;;;;;;;;12.70;90.10;;;;;;6247523;23;19906;-80
2023/12/22 10:56:28;;;;;;;;;;;12.90;89.90;;;;;;6247748;23;19899;-80
2023/12/22 10:58:53;;;;;;;;;;;13.00;88.80;;;;;;6248102;23;19900;-80
2023/12/22 11:01:20;;;;;;;;;;;13.30;87.80;;;;;;6247676;23;19908;-80
2023/12/22 11:03:48;;;;;;;;;;;13.20;85.70;;;;;;6247188;23;19900;-80
2023/12/22 11:06:15;;;;;;;;;;;13.30;87.20;;;;;;6247632;23;19899;-80
2023/12/22 11:08:42;;;;;;;;;;;13.40;86.90;;;;;;6247633;23;19965;-80
2023/12/22 11:11:23;;;;;;;;;;;13.60;86.80;;;;;;6247391;23;19906;-80
2023/12/22 11:13:49;;;;;;;;;;;13.70;86.10;;;;;;6246799;23;19923;-80
2023/12/22 11:16:15;;;;;;;;;;;13.90;86.20;;;;;;6247402;23;19906;-80
2023/12/22 11:18:41;;;;;;;;;;;14.10;85.80;;;;;;6247473;23;19900;-80
2023/12/22 11:21:08;;;;;;;;;;;14.20;85.40;;;;;;6247599;23;19911;-80
2023/12/22 11:23:35;;;;;;;;;;;14.40;84.80;;;;;;6247555;23;19906;-81
2023/12/22 11:26:01;;;;;;;;;;;14.40;84.60;;;;;;6247424;23;19900;-81
2023/12/22 11:28:26;;;;;;;;;;;14.60;83.90;;;;;;6247391;23;19900;-81
2023/12/22 11:30:52;;;;;;;;;;;14.70;83.30;;;;;;6247340;23;19903;-81
2023/12/22 11:33:18;;;;;;;;;;;14.80;83.70;;;;;;6246778;23;19903;-80
2023/12/22 11:35:45;;;;;;;;;;;15.00;83.90;;;;;;6247675;23;19899;-80
2023/12/22 11:38:11;;;;;;;;;;;15.30;83.60;;;;;;6247255;23;19975;-81
2023/12/22 11:40:36;;;;;;;;;;;15.60;82.00;;;;;;6247105;23;20279;-80
2023/12/22 11:43:02;;;;;;;;;;;16.00;82.00;;;;;;6246991;23;19908;-81
2023/12/22 11:45:30;;;;;;;;;;;16.80;79.40;;;;;;6245696;23;19905;-81
2023/12/22 11:47:56;;;;;;;;;;;17.80;78.80;;;;;;6246620;23;19978;-81
2023/12/22 11:50:28;;;;;;;;;;;18.90;75.20;;;;;;6247504;23;19942;-81
2023/12/22 11:52:53;;;;;;;;;;;19.80;72.50;;;;;;6247537;23;19906;-82
2023/12/22 11:58:23;;;;;;;;;;;21.50;68.80;;;;;;6246157;22;19969;-82
2023/12/22 12:00:52;;;;;;;;;;;22.20;65.50;;;;;;6246727;23;19942;-85
2023/12/22 12:03:18;;;;;;;;;;;22.80;60.80;;;;;;6246954;23;19984;-85
2023/12/22 12:05:43;;;;;;;;;;;23.10;60.20;;;;;;6246571;23;19908;-84
2023/12/22 12:08:09;;;;;;;;;;;23.20;58.30;;;;;;6245440;23;19900;-83
2023/12/22 12:10:35;;;;;;;;;;;23.40;59.50;;;;;;6244859;23;20241;-82
2023/12/22 12:13:08;;;;;;;;;;;23.70;58.40;;;;;;6246234;23;19976;-83
2023/12/22 12:15:34;;;;;;;;;;;24.10;57.40;;;;;;6246524;23;19986;-85
2023/12/22 12:18:00;;;;;;;;;;;24.30;56.50;;;;;;6245485;23;19904;-84
2023/12/22 12:20:27;;;;;;;;;;;24.40;55.90;;;;;;6246130;23;19927;-83
2023/12/22 12:22:52;;;;;;;;;;;24.50;55.50;;;;;;6219415;23;19903;-83
2023/12/22 12:25:23;;;;;;;;;;;24.40;54.00;;;;;;6246251;23;19915;-83
2023/12/22 12:27:48;;;;;;;;;;;24.30;53.70;;;;;;6246318;23;19929;-82
2023/12/22 12:30:14;;;;;;;;;;;24.00;54.20;;;;;;6246808;23;19950;-84
2023/12/22 12:32:44;;;;;;;;;;;23.90;54.90;;;;;;6246826;23;19900;-84
2023/12/22 12:35:10;;;;;;;;;;;23.80;54.90;;;;;;6245419;23;19899;-84
2023/12/22 12:37:36;;;;;;;;;;;23.60;54.50;;;;;;6246888;23;20237;-84
2023/12/22 12:40:04;;;;;;;;;;;23.30;52.60;;;;;;6246753;23;19899;-84
2023/12/22 12:42:33;;;;;;;;;;;22.90;55.20;;;;;;6246318;23;19903;-85
2023/12/22 12:44:59;;;;;;;;;;;22.50;56.20;;;;;;6246790;23;20274;-85
2023/12/22 12:47:25;;;;;;;;;;;22.10;56.70;;;;;;6246974;23;20507;-85
2023/12/22 12:49:58;;;;;;;;;;;21.90;57.20;;;;;;6246485;23;19906;-85
2023/12/22 12:52:25;;;;;;;;;;;21.60;57.60;;;;;;6246599;23;20262;-85
2023/12/22 12:54:51;;;;;;;;;;;21.40;58.80;;;;;;6245971;23;19903;-85
2023/12/22 12:57:17;;;;;;;;;;;21.30;59.90;;;;;;6246504;23;19912;-82
2023/12/22 12:59:47;;;;;;;;;;;21.30;60.30;;;;;;6247216;23;20023;-89
2023/12/22 13:09:13;;;;;;;41.42;27.35;;;20.80;59.40;;;;;;5069445;28;20375;-80
2023/12/22 13:13:09;;;;;;;11.98;9.00;;;19.80;60.80;;;;;;5070759;28;20374;-87
2023/12/22 13:15:35;;;;;;;12.93;8.00;;;20.00;65.70;;;;;;5070737;28;20021;-87
2023/12/22 13:18:01;;;;;;;9.90;8.15;;;20.10;65.40;;;;;;5064795;28;20283;-87
2023/12/22 13:20:27;;;;;;;12.55;8.80;;;20.20;62.70;;;;;;5068132;28;20029;-86
2023/12/22 13:22:54;;;;;;;8.57;6.72;;;20.10;62.00;;;;;;5068195;28;20027;-87
2023/12/22 13:25:21;;;;;;;14.88;8.43;;;19.80;61.90;;;;;;5070523;28;20055;-88
2023/12/22 13:27:51;;;;;;;11.80;8.10;;;19.50;62.50;;;;;;5070583;28;20542;-88
2023/12/22 13:30:34;;;;;;;13.80;10.05;;;19.00;63.10;;;;;;5070488;28;20075;-87
2023/12/22 13:33:00;;;;;;;11.13;7.10;;;18.50;64.10;;;;;;5070050;28;20021;-89
2023/12/22 13:35:41;;;;;;;8.85;7.45;;;18.00;64.80;;;;;;5319447;22;20064;-85
2023/12/22 13:38:08;;;;;;;13.10;7.35;;;17.60;65.80;;;;;;5052927;28;20050;-85
2023/12/22 13:40:35;;;;;;;11.20;8.10;;;17.20;66.80;;;;;;5061341;28;20078;-85
2023/12/22 13:43:02;;;;;;;12.68;7.93;;;16.90;68.00;;;;;;5057846;28;20081;-86
2023/12/22 13:45:28;;;;;;;10.45;7.07;;;16.60;68.70;;;;;;5070160;28;20488;-86
2023/12/22 13:47:54;;;;;;;10.40;7.32;;;16.40;69.50;;;;;;5070036;28;20021;-84
2023/12/22 13:50:24;;;;;;;10.23;7.85;;;16.20;70.40;;;;;;5069649;28;20028;-85
2023/12/22 13:52:51;;;;;;;12.65;7.47;;;16.00;70.80;;;;;;5062239;28;20029;-84
2023/12/22 13:55:18;;;;;;;13.73;7.80;;;15.90;71.10;;;;;;5068094;28;20112;-85
2023/12/22 13:57:44;;;;;;;14.10;8.25;;;15.80;71.70;;;;;;5058491;28;20031;-84
2023/12/22 14:00:19;;;;;;;11.00;8.35;;;15.60;72.40;;;;;;5050033;28;20048;-84
2023/12/22 14:02:51;;;;;;;11.45;7.20;;;15.50;73.10;;;;;;5056636;28;20040;-85
2023/12/22 14:05:17;;;;;;;12.48;8.02;;;15.30;73.50;;;;;;5069477;28;20044;-85
2023/12/22 14:07:46;;;;;;;10.88;7.65;;;15.20;74.00;;;;;;5070201;28;20036;-85
2023/12/22 14:10:12;;;;;;;15.18;10.00;;;15.10;74.50;;;;;;5066207;28;20118;-84
2023/12/22 14:12:39;;;;;;;12.00;9.73;;;14.90;75.20;;;;;;5050449;28;20033;-86
2023/12/22 14:15:09;;;;;;;11.65;8.25;;;14.80;75.70;;;;;;5051672;28;20021;-84
2023/12/22 14:17:35;;;;;;;13.40;9.68;;;14.60;76.20;;;;;;5050238;28;20025;-85
2023/12/22 14:20:01;;;;;;;12.68;9.20;;;14.50;76.80;;;;;;5036162;28;20032;-85
2023/12/22 14:22:27;;;;;;;13.68;9.43;;;14.30;77.30;;;;;;5068778;28;20032;-85